createdAt,value
2023-05-06T00:00:07.425Z,88.32
2023-05-06T00:02:39.690Z,88.68
2023-05-06T00:05:09.097Z,89.18
2023-05-06T00:07:37.576Z,89.50
2023-05-06T00:10:06.595Z,89.52
2023-05-06T00:12:35.506Z,90.46
2023-05-06T00:15:04.321Z,90.41
2023-05-06T00:17:32.468Z,90.63
2023-05-06T00:20:01.250Z,90.43
2023-05-06T00:22:29.578Z,90.56
2023-05-06T00:24:57.688Z,90.70
2023-05-06T00:27:26.879Z,91.34
2023-05-06T00:29:56.886Z,90.37
2023-05-06T00:32:25.568Z,89.87
2023-05-06T00:34:54.181Z,90.84
2023-05-06T00:37:22.204Z,92.17
2023-05-06T00:39:50.674Z,91.66
2023-05-06T00:42:19.514Z,90.77
2023-05-06T00:44:47.722Z,91.30
2023-05-06T00:47:17.697Z,91.44
2023-05-06T00:49:50.414Z,91.46
2023-05-06T00:52:20.183Z,91.50
2023-05-06T00:54:48.762Z,91.47
2023-05-06T00:57:17.045Z,90.68
2023-05-06T00:59:45.706Z,90.83
2023-05-06T01:02:13.744Z,90.97
2023-05-06T01:04:42.509Z,91.17
2023-05-06T01:07:39.864Z,91.64
2023-05-06T01:10:19.198Z,91.51
2023-05-06T01:12:47.590Z,91.32
2023-05-06T01:15:22.113Z,91.81
2023-05-06T01:17:53.541Z,91.95
2023-05-06T01:20:21.928Z,92.44
2023-05-06T01:22:51.134Z,92.38
2023-05-06T01:25:20.558Z,90.75
2023-05-06T01:27:50.464Z,90.94
2023-05-06T01:30:20.464Z,91.65
2023-05-06T01:33:27.042Z,91.95
2023-05-06T01:36:10.491Z,92.88
2023-05-06T01:38:48.208Z,93.97
2023-05-06T01:41:18.106Z,93.85
2023-05-06T01:43:47.933Z,93.94
2023-05-06T01:46:20.830Z,93.45
2023-05-06T01:48:53.786Z,93.09
2023-05-06T01:51:24.385Z,93.30
2023-05-06T01:53:52.789Z,93.72
2023-05-06T01:56:20.875Z,94.54
2023-05-06T01:58:49.627Z,94.59
2023-05-06T02:01:18.384Z,94.87
2023-05-06T02:03:47.929Z,96.27
2023-05-06T02:06:16.477Z,95.91
2023-05-06T02:08:45.318Z,96.20
2023-05-06T02:11:14.425Z,96.43
2023-05-06T02:13:43.771Z,96.67
2023-05-06T02:16:12.314Z,96.82
2023-05-06T02:18:41.477Z,96.75
2023-05-06T02:21:11.056Z,96.49
2023-05-06T02:23:39.980Z,96.61
2023-05-06T02:26:08.392Z,96.52
2023-05-06T02:28:36.691Z,97.06
2023-05-06T02:31:05.940Z,97.99
2023-05-06T02:33:34.233Z,98.49
2023-05-06T02:36:02.479Z,98.91
2023-05-06T02:38:31.215Z,99.18
2023-05-06T02:41:01.186Z,98.39
2023-05-06T02:43:29.763Z,97.90
2023-05-06T02:45:59.217Z,98.17
2023-05-06T02:48:27.403Z,98.50
2023-05-06T02:50:55.644Z,98.32
2023-05-06T02:53:24.149Z,97.62
2023-05-06T02:55:52.250Z,97.60
2023-05-06T02:58:20.750Z,97.77
2023-05-06T03:00:49.249Z,96.87
2023-05-06T03:03:17.989Z,98.11
2023-05-06T03:05:46.551Z,98.17
2023-05-06T03:08:14.928Z,97.31
2023-05-06T03:10:43.333Z,97.47
2023-05-06T03:13:11.880Z,97.71
2023-05-06T03:15:41.459Z,95.87
2023-05-06T03:18:10.017Z,95.14
2023-05-06T03:20:39.425Z,96.69
2023-05-06T03:23:08.704Z,98.22
2023-05-06T03:25:37.466Z,98.92
2023-05-06T03:28:06.119Z,98.59
2023-05-06T03:30:35.104Z,98.87
2023-05-06T03:33:04.865Z,99.01
2023-05-06T03:35:33.964Z,98.76
2023-05-06T03:38:03.294Z,99.13
2023-05-06T03:40:33.470Z,99.13
2023-05-06T03:43:02.108Z,99.23
2023-05-06T03:45:30.711Z,99.76
2023-05-06T03:48:00.090Z,99.99
2023-05-06T03:50:28.920Z,100.00
2023-05-06T03:52:57.647Z,100.00
2023-05-06T03:55:26.229Z,100.00
2023-05-06T03:57:54.814Z,100.00
2023-05-06T04:00:23.355Z,100.00
2023-05-06T04:02:52.053Z,100.00
2023-05-06T04:05:21.125Z,100.00
2023-05-06T04:07:49.505Z,100.00
2023-05-06T04:10:18.494Z,100.00
2023-05-06T04:12:47.797Z,100.00
2023-05-06T04:15:16.960Z,100.00
2023-05-06T04:17:45.610Z,100.00
2023-05-06T04:20:14.570Z,100.00
2023-05-06T04:22:42.755Z,100.00
2023-05-06T04:25:12.373Z,100.00
2023-05-06T04:27:41.813Z,99.68
2023-05-06T04:30:10.470Z,100.00
2023-05-06T04:32:39.290Z,100.00
2023-05-06T04:35:08.478Z,99.42
2023-05-06T04:37:38.033Z,99.87
2023-05-06T04:40:09.472Z,100.00
2023-05-06T04:42:39.548Z,100.00
2023-05-06T04:45:09.709Z,100.00
2023-05-06T04:47:38.329Z,100.00
2023-05-06T04:50:07.348Z,100.00
2023-05-06T04:52:37.505Z,100.00
2023-05-06T04:55:07.031Z,100.00
2023-05-06T04:57:36.157Z,100.00
2023-05-06T05:00:06.088Z,100.00
2023-05-06T05:02:34.846Z,100.00
2023-05-06T05:05:03.723Z,100.00
2023-05-06T05:07:31.909Z,98.63
2023-05-06T05:10:00.391Z,99.36
2023-05-06T05:12:28.987Z,98.62
2023-05-06T05:14:57.737Z,100.00
2023-05-06T05:17:26.112Z,98.85
2023-05-06T05:19:54.954Z,97.55
2023-05-06T05:22:23.284Z,97.99
2023-05-06T05:24:51.691Z,98.08
2023-05-06T05:27:20.565Z,98.43
2023-05-06T05:29:48.986Z,98.46
2023-05-06T05:32:17.478Z,98.05
2023-05-06T05:34:46.783Z,97.31
2023-05-06T05:37:15.313Z,95.96
2023-05-06T05:39:43.437Z,97.38
2023-05-06T05:42:12.519Z,96.28
2023-05-06T05:44:41.791Z,95.20
2023-05-06T05:47:10.360Z,95.81
2023-05-06T05:49:39.126Z,96.09
2023-05-06T05:52:07.999Z,95.56
2023-05-06T05:54:36.884Z,96.65
2023-05-06T05:57:05.824Z,94.61
2023-05-06T05:59:34.283Z,94.24
2023-05-06T06:02:03.627Z,90.92
2023-05-06T06:04:32.490Z,90.46
2023-05-06T06:07:02.095Z,88.26
2023-05-06T06:09:31.357Z,87.68
2023-05-06T06:12:00.628Z,85.00
2023-05-06T06:14:29.548Z,85.53
2023-05-06T06:16:57.992Z,85.81
2023-05-06T06:19:26.642Z,85.00
2023-05-06T06:21:54.894Z,85.25
2023-05-06T06:24:24.663Z,84.46
2023-05-06T06:26:53.152Z,85.38
2023-05-06T06:29:21.535Z,82.21
2023-05-06T06:31:50.166Z,83.64
2023-05-06T06:34:18.984Z,82.01
2023-05-06T06:36:47.706Z,85.69
2023-05-06T06:39:15.989Z,83.52
2023-05-06T06:41:44.493Z,82.74
2023-05-06T06:44:12.742Z,81.61
2023-05-06T06:46:41.749Z,81.08
2023-05-06T06:49:10.231Z,80.98
2023-05-06T06:51:38.592Z,79.99
2023-05-06T06:54:06.985Z,81.14
2023-05-06T06:56:35.640Z,82.31
2023-05-06T06:59:04.221Z,80.69
2023-05-06T07:01:32.772Z,77.94
2023-05-06T07:04:01.867Z,80.21
2023-05-06T07:06:30.188Z,75.61
2023-05-06T07:08:58.429Z,75.43
2023-05-06T07:11:26.879Z,76.41
2023-05-06T07:13:55.346Z,73.21
2023-05-06T07:16:23.944Z,73.93
2023-05-06T07:18:53.863Z,72.91
2023-05-06T07:21:22.258Z,70.98
2023-05-06T07:23:50.530Z,67.77
2023-05-06T07:26:19.060Z,68.15
2023-05-06T07:28:47.557Z,68.76
2023-05-06T07:31:16.508Z,68.88
2023-05-06T07:33:45.348Z,67.28
2023-05-06T07:36:13.624Z,65.60
2023-05-06T07:38:42.075Z,64.50
2023-05-06T07:41:10.742Z,64.86
2023-05-06T07:43:39.081Z,64.53
2023-05-06T07:46:08.131Z,64.07
2023-05-06T07:48:36.637Z,64.25
2023-05-06T07:51:05.066Z,60.89
2023-05-06T07:53:33.860Z,63.25
2023-05-06T07:56:03.603Z,61.73
2023-05-06T07:58:32.085Z,61.00
2023-05-06T08:01:00.586Z,63.46
2023-05-06T08:03:30.432Z,61.01
2023-05-06T08:05:59.572Z,61.27
2023-05-06T08:08:28.205Z,60.22
2023-05-06T08:10:58.905Z,59.40
2023-05-06T08:13:28.187Z,58.02
2023-05-06T08:15:57.601Z,61.88
2023-05-06T08:18:25.797Z,60.08
2023-05-06T08:20:54.138Z,57.98
2023-05-06T08:23:22.814Z,57.43
2023-05-06T08:25:50.977Z,57.08
2023-05-06T08:28:20.073Z,59.85
2023-05-06T08:30:51.288Z,57.25
2023-05-06T08:33:19.799Z,53.28
2023-05-06T08:35:49.544Z,55.67
2023-05-06T08:38:18.050Z,53.52
2023-05-06T08:40:48.616Z,52.60
2023-05-06T08:43:21.202Z,52.55
2023-05-06T08:45:49.812Z,54.27
2023-05-06T08:48:18.720Z,56.39
2023-05-06T08:50:49.178Z,54.49
2023-05-06T08:53:17.633Z,56.31
2023-05-06T08:55:47.047Z,55.86
2023-05-06T08:58:17.354Z,54.24
2023-05-06T09:00:46.892Z,53.19
2023-05-06T09:03:15.065Z,52.52
2023-05-06T09:05:43.403Z,51.22
2023-05-06T09:08:11.922Z,51.01
2023-05-06T09:10:47.496Z,51.79
2023-05-06T09:13:18.697Z,52.18
2023-05-06T09:15:48.978Z,49.89
2023-05-06T09:18:17.655Z,49.03
2023-05-06T09:20:48.271Z,48.15
2023-05-06T09:23:18.220Z,48.48
2023-05-06T09:25:47.677Z,51.21
2023-05-06T09:28:16.358Z,48.68
2023-05-06T09:30:47.753Z,47.57
2023-05-06T09:33:16.887Z,48.63
2023-05-06T09:35:45.757Z,47.20
2023-05-06T09:38:14.185Z,48.14
2023-05-06T09:40:42.711Z,47.32
2023-05-06T09:43:12.456Z,46.06
2023-05-06T09:45:41.457Z,46.26
2023-05-06T09:48:10.443Z,48.49
2023-05-06T09:50:39.412Z,48.10
2023-05-06T09:53:09.097Z,47.28
2023-05-06T09:55:38.394Z,45.18
2023-05-06T09:58:08.167Z,46.31
2023-05-06T10:00:36.821Z,46.54
2023-05-06T10:03:06.004Z,47.51
2023-05-06T10:05:36.432Z,47.07
2023-05-06T10:08:07.878Z,46.78
2023-05-06T10:10:37.949Z,47.91
2023-05-06T10:13:06.450Z,46.96
2023-05-06T10:15:35.595Z,48.03
2023-05-06T10:18:05.347Z,47.92
2023-05-06T10:20:36.199Z,45.91
2023-05-06T10:23:09.275Z,48.54
2023-05-06T10:25:41.388Z,48.78
2023-05-06T10:28:17.232Z,49.86
2023-05-06T10:30:59.681Z,48.42
2023-05-06T10:33:28.758Z,49.84
2023-05-06T10:36:07.205Z,49.43
2023-05-06T10:38:40.440Z,49.02
2023-05-06T10:41:09.696Z,47.23
2023-05-06T10:43:45.202Z,46.11
2023-05-06T10:46:15.627Z,47.09
2023-05-06T10:49:11.468Z,46.90
2023-05-06T10:51:41.958Z,46.87
2023-05-06T10:54:18.507Z,46.16
2023-05-06T10:56:49.830Z,47.88
2023-05-06T10:59:26.778Z,47.90
2023-05-06T11:01:57.347Z,47.28
2023-05-06T11:04:26.268Z,46.85
2023-05-06T11:06:54.508Z,48.06
2023-05-06T11:09:27.763Z,45.14
2023-05-06T11:12:04.495Z,45.37
2023-05-06T11:14:37.184Z,44.88
2023-05-06T11:17:28.792Z,45.75
2023-05-06T11:20:23.040Z,45.65
2023-05-06T11:22:52.292Z,45.66
2023-05-06T11:25:49.422Z,44.45
2023-05-06T11:28:18.065Z,45.58
2023-05-06T11:30:54.815Z,47.45
2023-05-06T11:33:27.771Z,47.36
2023-05-06T11:35:56.303Z,47.27
2023-05-06T11:38:26.608Z,46.86
2023-05-06T11:40:55.537Z,46.32
2023-05-06T11:43:23.746Z,47.45
2023-05-06T11:45:52.335Z,48.23
2023-05-06T11:48:20.822Z,48.01
2023-05-06T11:50:49.884Z,47.72
2023-05-06T11:53:21.293Z,48.68
2023-05-06T11:55:52.117Z,48.87
2023-05-06T11:58:25.605Z,49.22
2023-05-06T12:00:55.993Z,49.38
2023-05-06T12:03:26.989Z,51.13
2023-05-06T12:05:55.787Z,50.45
2023-05-06T12:08:27.794Z,52.34
2023-05-06T12:11:01.876Z,52.32
2023-05-06T12:13:30.659Z,53.68
2023-05-06T12:16:00.264Z,53.20
2023-05-06T12:18:29.287Z,50.77
2023-05-06T12:21:02.432Z,51.48
2023-05-06T12:23:31.361Z,53.01
2023-05-06T12:26:09.168Z,52.85
2023-05-06T12:28:38.031Z,52.85
2023-05-06T12:31:18.930Z,52.22
2023-05-06T12:33:51.497Z,51.46
2023-05-06T12:36:19.859Z,53.77
2023-05-06T12:38:59.340Z,53.22
2023-05-06T12:41:42.339Z,52.67
2023-05-06T12:44:31.458Z,51.80
2023-05-06T12:47:03.754Z,52.61
2023-05-06T12:49:58.122Z,53.45
2023-05-06T12:52:29.783Z,52.18
2023-05-06T12:55:01.756Z,52.17
2023-05-06T12:57:30.189Z,52.07
2023-05-06T12:59:58.872Z,51.39
2023-05-06T13:02:27.079Z,52.58
2023-05-06T13:04:56.965Z,52.45
2023-05-06T13:07:25.457Z,54.31
2023-05-06T13:09:53.885Z,55.50
2023-05-06T13:12:21.920Z,55.54
2023-05-06T13:14:50.497Z,56.54
2023-05-06T13:17:18.819Z,57.49
2023-05-06T13:19:47.654Z,57.85
2023-05-06T13:22:16.708Z,58.45
2023-05-06T13:24:44.975Z,59.39
2023-05-06T13:27:13.085Z,58.81
2023-05-06T13:29:41.803Z,59.79
2023-05-06T13:32:10.290Z,60.10
2023-05-06T13:34:38.683Z,59.64
2023-05-06T13:37:07.816Z,60.60
2023-05-06T13:39:36.392Z,61.78
2023-05-06T13:42:06.711Z,63.37
2023-05-06T13:44:36.826Z,63.50
2023-05-06T13:47:05.455Z,64.13
2023-05-06T13:49:33.628Z,65.11
2023-05-06T13:52:03.689Z,66.07
2023-05-06T13:54:32.543Z,67.75
2023-05-06T13:57:01.478Z,68.30
2023-05-06T13:59:29.989Z,72.48
2023-05-06T14:01:58.989Z,72.74
2023-05-06T14:04:27.728Z,78.02
2023-05-06T14:06:57.695Z,83.08
2023-05-06T14:09:25.938Z,84.63
2023-05-06T14:11:54.290Z,88.17
2023-05-06T14:14:22.423Z,89.48
2023-05-06T14:16:53.543Z,86.53
2023-05-06T14:19:22.313Z,87.58
2023-05-06T14:21:51.811Z,88.02
2023-05-06T14:24:20.112Z,92.59
2023-05-06T14:26:48.640Z,96.50
2023-05-06T14:29:17.319Z,97.13
2023-05-06T14:31:46.525Z,100.00
2023-05-06T14:34:15.186Z,100.00
2023-05-06T14:36:43.839Z,100.00
2023-05-06T14:39:13.330Z,100.00
2023-05-06T14:41:41.748Z,100.00
2023-05-06T14:44:10.332Z,100.00
2023-05-06T14:46:38.597Z,100.00
2023-05-06T14:49:07.207Z,100.00
2023-05-06T14:51:35.394Z,100.00
2023-05-06T14:54:04.567Z,100.00
2023-05-06T14:56:33.143Z,100.00
2023-05-06T14:59:03.726Z,100.00
2023-05-06T15:01:33.983Z,100.00
2023-05-06T15:04:02.137Z,100.00
2023-05-06T15:06:30.257Z,100.00
2023-05-06T15:08:58.817Z,100.00
2023-05-06T15:11:27.684Z,100.00
2023-05-06T15:13:56.012Z,100.00
2023-05-06T15:16:24.565Z,100.00
2023-05-06T15:18:52.935Z,100.00
2023-05-06T15:21:21.092Z,100.00
2023-05-06T15:23:50.060Z,100.00
2023-05-06T15:26:18.382Z,100.00
2023-05-06T15:28:46.531Z,100.00
2023-05-06T15:31:15.172Z,100.00
2023-05-06T15:33:44.198Z,100.00
2023-05-06T15:36:12.387Z,100.00
2023-05-06T15:38:53.029Z,98.19
2023-05-06T15:41:23.391Z,98.68
2023-05-06T15:43:52.417Z,99.27
2023-05-06T15:46:20.980Z,95.84
2023-05-06T15:48:52.032Z,97.26
2023-05-06T15:51:31.835Z,95.90
2023-05-06T15:54:00.282Z,93.05
2023-05-06T15:56:28.431Z,97.51
2023-05-06T15:58:56.950Z,90.25
2023-05-06T16:01:44.970Z,92.96
2023-05-06T16:04:14.248Z,92.59
2023-05-06T16:06:42.521Z,92.75
2023-05-06T16:09:10.732Z,92.37
2023-05-06T16:11:39.464Z,91.88
2023-05-06T16:14:07.541Z,92.41
2023-05-06T16:16:35.763Z,93.43
2023-05-06T16:19:04.935Z,95.14
2023-05-06T16:21:33.134Z,95.46
2023-05-06T16:24:02.540Z,95.78
2023-05-06T16:26:31.762Z,97.30
2023-05-06T16:29:01.628Z,97.77
2023-05-06T16:31:30.800Z,98.50
2023-05-06T16:33:59.913Z,98.89
2023-05-06T16:36:28.656Z,99.95
2023-05-06T16:38:56.964Z,99.88
2023-05-06T16:41:26.049Z,100.00
2023-05-06T16:43:54.339Z,100.00
2023-05-06T16:46:24.521Z,100.00
2023-05-06T16:48:54.036Z,100.00
2023-05-06T16:51:22.217Z,100.00
2023-05-06T16:53:50.465Z,100.00
2023-05-06T16:56:18.991Z,100.00
2023-05-06T16:58:47.109Z,100.00
2023-05-06T17:01:15.224Z,100.00
2023-05-06T17:03:43.761Z,100.00
2023-05-06T17:06:11.891Z,100.00
2023-05-06T17:08:40.141Z,100.00
2023-05-06T17:11:09.048Z,100.00
2023-05-06T17:13:37.222Z,100.00
2023-05-06T17:16:05.576Z,100.00
2023-05-06T17:18:34.549Z,100.00
2023-05-06T17:21:02.627Z,100.00
2023-05-06T17:23:30.779Z,100.00
2023-05-06T17:26:00.556Z,100.00
2023-05-06T17:28:28.669Z,100.00
2023-05-06T17:30:56.819Z,100.00
2023-05-06T17:33:25.433Z,100.00
2023-05-06T17:35:53.549Z,100.00
2023-05-06T17:38:21.734Z,100.00
2023-05-06T17:40:50.448Z,100.00
2023-05-06T17:43:19.086Z,100.00
2023-05-06T17:45:47.490Z,100.00
2023-05-06T17:48:16.318Z,100.00
2023-05-06T17:50:44.778Z,100.00
2023-05-06T17:53:13.043Z,100.00
2023-05-06T17:55:41.874Z,100.00
2023-05-06T17:58:09.922Z,100.00
2023-05-06T18:00:38.452Z,100.00
2023-05-06T18:03:07.364Z,100.00
2023-05-06T18:05:35.732Z,100.00
2023-05-06T18:08:04.832Z,100.00
2023-05-06T18:10:33.729Z,100.00
2023-05-06T18:13:01.976Z,100.00
2023-05-06T18:15:30.080Z,100.00
2023-05-06T18:17:58.805Z,100.00
2023-05-06T18:20:27.259Z,100.00
2023-05-06T18:22:56.279Z,100.00
2023-05-06T18:25:25.090Z,100.00
2023-05-06T18:27:53.163Z,100.00
2023-05-06T18:30:21.199Z,100.00
2023-05-06T18:32:51.774Z,100.00
2023-05-06T18:35:20.928Z,100.00
2023-05-06T18:37:49.390Z,100.00
2023-05-06T18:40:18.221Z,100.00
2023-05-06T18:42:47.505Z,100.00
2023-05-06T18:45:16.209Z,100.00
2023-05-06T18:47:44.464Z,100.00
2023-05-06T18:50:12.586Z,100.00
2023-05-06T18:52:41.352Z,100.00
2023-05-06T18:55:10.110Z,100.00
2023-05-06T18:57:38.440Z,100.00
2023-05-06T19:00:07.534Z,100.00
2023-05-06T19:02:38.035Z,100.00
2023-05-06T19:05:07.831Z,100.00
2023-05-06T19:07:36.291Z,100.00
2023-05-06T19:10:05.212Z,100.00
2023-05-06T19:12:34.805Z,100.00
2023-05-06T19:15:02.956Z,100.00
2023-05-06T19:17:31.785Z,100.00
2023-05-06T19:20:00.516Z,100.00
2023-05-06T19:22:29.821Z,100.00
2023-05-06T19:24:58.175Z,100.00
2023-05-06T19:27:26.717Z,100.00
2023-05-06T19:29:55.181Z,100.00
2023-05-06T19:32:23.590Z,100.00
2023-05-06T19:34:52.005Z,100.00
2023-05-06T19:37:20.260Z,100.00
2023-05-06T19:39:49.666Z,100.00
2023-05-06T19:42:18.221Z,100.00
2023-05-06T19:44:47.938Z,100.00
2023-05-06T19:47:16.561Z,100.00
2023-05-06T19:49:45.081Z,100.00
2023-05-06T19:52:13.329Z,100.00
2023-05-06T19:54:42.067Z,100.00
2023-05-06T19:57:10.704Z,100.00
2023-05-06T19:59:39.064Z,100.00
2023-05-06T20:02:10.517Z,100.00
2023-05-06T20:04:39.385Z,100.00
2023-05-06T20:07:07.813Z,100.00
2023-05-06T20:09:36.261Z,100.00
2023-05-06T20:12:05.808Z,100.00
2023-05-06T20:14:34.286Z,100.00
2023-05-06T20:17:02.850Z,100.00
2023-05-06T20:19:31.498Z,100.00
2023-05-06T20:22:00.358Z,100.00
2023-05-06T20:24:29.512Z,100.00
2023-05-06T20:26:59.046Z,100.00
2023-05-06T20:29:27.208Z,100.00
2023-05-06T20:31:55.658Z,100.00
2023-05-06T20:34:24.213Z,100.00
2023-05-06T20:36:56.264Z,100.00
2023-05-06T20:39:25.091Z,100.00
2023-05-06T20:41:53.262Z,100.00
2023-05-06T20:44:21.739Z,100.00
2023-05-06T20:46:50.045Z,100.00
2023-05-06T20:49:18.781Z,100.00
2023-05-06T20:51:47.341Z,100.00
2023-05-06T20:54:16.176Z,100.00
2023-05-06T20:56:44.328Z,100.00
2023-05-06T20:59:12.587Z,100.00
2023-05-06T21:01:41.394Z,100.00
2023-05-06T21:04:09.518Z,100.00
2023-05-06T21:06:37.767Z,100.00
2023-05-06T21:09:06.851Z,100.00
2023-05-06T21:11:34.919Z,100.00
2023-05-06T21:14:03.906Z,100.00
2023-05-06T21:16:32.688Z,100.00
2023-05-06T21:19:00.959Z,100.00
2023-05-06T21:21:31.332Z,100.00
2023-05-06T21:24:00.186Z,100.00
2023-05-06T21:26:29.773Z,100.00
2023-05-06T21:28:58.435Z,100.00
2023-05-06T21:31:27.472Z,100.00
2023-05-06T21:33:57.780Z,100.00
2023-05-06T21:36:26.292Z,100.00
2023-05-06T21:39:21.016Z,100.00
2023-05-06T21:41:49.703Z,100.00
2023-05-06T21:44:18.152Z,100.00
2023-05-06T21:46:46.267Z,100.00
2023-05-06T21:49:14.584Z,100.00
2023-05-06T21:51:49.585Z,100.00
2023-05-06T21:54:17.845Z,100.00
2023-05-06T21:56:46.386Z,100.00
2023-05-06T21:59:14.643Z,100.00
2023-05-06T22:01:43.095Z,100.00
2023-05-06T22:04:13.129Z,100.00
2023-05-06T22:06:42.106Z,100.00
2023-05-06T22:09:10.236Z,100.00
2023-05-06T22:11:38.841Z,100.00
2023-05-06T22:14:07.389Z,100.00
2023-05-06T22:16:37.775Z,100.00
2023-05-06T22:19:06.596Z,100.00
2023-05-06T22:21:35.365Z,100.00
2023-05-06T22:24:03.638Z,100.00
2023-05-06T22:26:33.106Z,100.00
2023-05-06T22:29:01.473Z,100.00
2023-05-06T22:31:30.008Z,100.00
2023-05-06T22:34:03.532Z,100.00
2023-05-06T22:36:33.983Z,100.00
2023-05-06T22:39:02.583Z,100.00
2023-05-06T22:41:31.039Z,100.00
2023-05-06T22:44:00.429Z,100.00
2023-05-06T22:46:29.235Z,100.00
2023-05-06T22:48:58.012Z,100.00
2023-05-06T22:51:26.816Z,100.00
2023-05-06T22:53:55.437Z,100.00
2023-05-06T22:56:23.755Z,100.00
2023-05-06T22:58:52.117Z,100.00
2023-05-06T23:01:20.857Z,100.00
2023-05-06T23:03:49.285Z,100.00
2023-05-06T23:06:18.413Z,100.00
2023-05-06T23:08:46.767Z,100.00
2023-05-06T23:11:14.915Z,100.00
2023-05-06T23:13:43.348Z,100.00
2023-05-06T23:16:11.920Z,100.00
2023-05-06T23:18:40.758Z,100.00
2023-05-06T23:21:10.076Z,100.00
2023-05-06T23:23:38.469Z,100.00
2023-05-06T23:26:06.691Z,100.00
2023-05-06T23:28:34.910Z,100.00
2023-05-06T23:31:03.356Z,100.00
2023-05-06T23:33:31.568Z,100.00
2023-05-06T23:36:00.927Z,100.00
2023-05-06T23:38:29.351Z,100.00
2023-05-06T23:40:57.568Z,100.00
2023-05-06T23:43:25.896Z,100.00
2023-05-06T23:45:57.840Z,100.00
2023-05-06T23:48:26.168Z,100.00
2023-05-06T23:50:55.072Z,100.00
2023-05-06T23:53:23.709Z,100.00
2023-05-06T23:55:52.330Z,100.00
2023-05-06T23:58:20.910Z,100.00
